Time;durP1;ratioP1;P1;durP2;ratioP2;P2;SDS_P1;SDS_P2;PMS_P1;PMS_P2;Temp;Humidity;BMP_temperature;BMP_pressure;BME280_temperature;BME280_humidity;BME280_pressure;Samples;Min_cycle;Max_cycle;Signal;HPM_P1;HPM_P2
2022/04/13 00:01:42;;;;;;;5.80;3.10;;;;;;;-155.54;100.00;57697.75;4997607;28;20074;-62
2022/04/13 00:04:08;;;;;;;6.15;3.65;;;;;;;-155.54;100.00;57697.75;4997456;28;20224;-63
2022/04/13 00:06:38;;;;;;;5.90;3.20;;;;;;;-155.54;100.00;57697.75;4996767;28;20121;-62
2022/04/13 00:09:08;;;;;;;4.43;3.00;;;;;;;-155.54;100.00;57697.75;4987382;28;20328;-62
2022/04/13 00:11:33;;;;;;;6.30;3.40;;;;;;;-155.54;100.00;57697.75;4988464;28;20119;-62
2022/04/13 00:13:59;;;;;;;5.32;2.92;;;;;;;-155.54;100.00;57697.75;4990979;28;20472;-62
2022/04/13 00:16:24;;;;;;;4.85;3.17;;;;;;;-155.54;100.00;57697.75;5013040;28;20091;-61
2022/04/13 00:18:50;;;;;;;5.80;2.95;;;;;;;-155.54;100.00;57697.75;5017015;28;20593;-61
2022/04/13 00:21:15;;;;;;;4.15;2.90;;;;;;;-155.54;100.00;57697.75;5017679;28;20118;-61
2022/04/13 00:23:41;;;;;;;4.35;2.70;;;;;;;-155.54;100.00;57697.75;5019482;28;20132;-63
2022/04/13 00:26:06;;;;;;;6.38;3.40;;;;;;;-155.54;100.00;57697.75;5021326;28;20152;-62
2022/04/13 00:28:32;;;;;;;3.58;2.60;;;;;;;-155.54;100.00;57697.75;5021286;28;20515;-63
2022/04/13 00:30:58;;;;;;;4.85;3.20;;;;;;;-155.54;100.00;57697.75;5020934;28;20092;-62
2022/04/13 00:33:23;;;;;;;5.55;3.10;;;;;;;-155.54;100.00;57697.75;5021608;28;20084;-62
2022/04/13 00:35:48;;;;;;;4.82;3.13;;;;;;;-155.54;100.00;57697.75;5019962;28;20305;-63
2022/04/13 00:38:14;;;;;;;2.97;2.45;;;;;;;-155.54;100.00;57697.75;5020612;28;20065;-63
2022/04/13 00:40:42;;;;;;;6.32;3.03;;;;;;;-155.54;100.00;57697.75;5013798;28;20412;-63
2022/04/13 00:43:08;;;;;;;4.15;3.20;;;;;;;-155.54;100.00;57697.75;5015780;28;20134;-63
2022/04/13 00:45:34;;;;;;;4.35;3.00;;;;;;;-155.54;100.00;57697.75;5021426;28;20145;-63
2022/04/13 00:47:59;;;;;;;4.32;2.90;;;;;;;-155.54;100.00;57697.75;5020781;28;20091;-63
2022/04/13 00:50:24;;;;;;;6.25;3.33;;;;;;;-155.54;100.00;57697.75;5008715;28;20072;-64
2022/04/13 00:52:50;;;;;;;4.78;2.33;;;;;;;-155.54;100.00;57697.75;5017979;28;20081;-64
2022/04/13 00:55:15;;;;;;;5.00;3.10;;;;;;;-155.54;100.00;57697.75;5019415;28;20085;-64
2022/04/13 00:57:41;;;;;;;4.68;2.85;;;;;;;-155.54;100.00;57697.75;5017541;28;20063;-64
2022/04/13 01:00:09;;;;;;;7.68;3.58;;;;;;;-155.54;100.00;57697.75;5020533;28;20486;-64
2022/04/13 01:02:36;;;;;;;3.83;3.00;;;;;;;-155.54;100.00;57697.75;5021383;28;20105;-63
2022/04/13 01:05:02;;;;;;;7.35;2.70;;;;;;;-155.54;100.00;57697.75;5021363;28;20052;-63
2022/04/13 01:07:28;;;;;;;10.05;4.20;;;;;;;-155.54;100.00;57697.75;5021201;28;20091;-65
2022/04/13 01:09:53;;;;;;;5.82;4.18;;;;;;;-155.54;100.00;57697.75;5017190;28;20210;-63
2022/04/13 01:12:18;;;;;;;5.75;4.15;;;;;;;-155.54;100.00;57697.75;5019343;28;20082;-62
2022/04/13 01:14:44;;;;;;;6.03;3.75;;;;;;;-155.54;100.00;57697.75;5023854;28;20117;-63
2022/04/13 01:17:09;;;;;;;6.05;3.30;;;;;;;-155.54;100.00;57697.75;5025058;28;20080;-61
2022/04/13 01:19:35;;;;;;;5.22;3.30;;;;;;;-155.54;100.00;57697.75;5023284;28;20091;-63
2022/04/13 01:22:16;;;;;;;7.30;3.30;;;;;;;-155.54;100.00;57697.75;5025104;28;20076;-63
2022/04/13 01:24:42;;;;;;;3.67;2.70;;;;;;;-155.54;100.00;57697.75;5018410;28;20085;-62
2022/04/13 01:27:07;;;;;;;3.95;2.17;;;;;;;-155.54;100.00;57697.75;5024104;28;20116;-63
2022/04/13 01:29:33;;;;;;;2.47;2.20;;;;;;;-155.54;100.00;57697.75;5015273;28;20614;-63
2022/04/13 01:31:58;;;;;;;2.47;1.88;;;;;;;-155.54;100.00;57697.75;5024377;28;20576;-62
2022/04/13 01:34:23;;;;;;;3.35;2.22;;;;;;;-155.54;100.00;57697.75;5024196;28;20072;-63
2022/04/13 01:36:49;;;;;;;2.08;1.85;;;;;;;-155.54;100.00;57697.75;5012143;28;20063;-62
2022/04/13 01:39:14;;;;;;;2.17;1.70;;;;;;;-155.54;100.00;57697.75;5011969;28;20643;-63
2022/04/13 01:41:40;;;;;;;4.20;2.20;;;;;;;-155.54;100.00;57697.75;5015085;28;20446;-62
2022/04/13 01:44:05;;;;;;;4.25;2.10;;;;;;;-155.54;100.00;57697.75;5024054;28;20087;-63
2022/04/13 01:46:31;;;;;;;4.45;2.40;;;;;;;-155.54;100.00;57697.75;5024063;28;20106;-64
2022/04/13 01:48:56;;;;;;;3.38;2.10;;;;;;;-155.54;100.00;57697.75;5024597;28;20083;-63
2022/04/13 01:51:21;;;;;;;3.47;2.70;;;;;;;-155.54;100.00;57697.75;5023732;28;20091;-63
2022/04/13 01:53:50;;;;;;;5.00;2.35;;;;;;;-155.54;100.00;57697.75;5024772;28;20072;-63
2022/04/13 01:56:16;;;;;;;2.55;2.05;;;;;;;-155.54;100.00;57697.75;5024041;28;20093;-63
2022/04/13 01:58:41;;;;;;;4.93;3.53;;;;;;;-155.54;100.00;57697.75;5023943;28;20613;-64
2022/04/13 02:01:07;;;;;;;2.90;2.40;;;;;;;-155.54;100.00;57697.75;5022203;28;20081;-64
2022/04/13 02:03:32;;;;;;;5.32;2.50;;;;;;;-155.54;100.00;57697.75;5024069;28;20457;-63
2022/04/13 02:05:57;;;;;;;2.70;1.98;;;;;;;-155.54;100.00;57697.75;5011291;28;20584;-63
2022/04/13 02:08:23;;;;;;;3.15;2.40;;;;;;;-155.54;100.00;57697.75;5017095;28;20693;-63
2022/04/13 02:10:49;;;;;;;5.57;3.08;;;;;;;-155.54;100.00;57697.75;5022532;28;20082;-61
2022/04/13 02:13:15;;;;;;;3.05;2.58;;;;;;;-155.54;100.00;57697.75;5021073;28;20363;-63
2022/04/13 02:15:40;;;;;;;3.83;3.10;;;;;;;-155.54;100.00;57697.75;5021943;28;20098;-63
2022/04/13 02:18:06;;;;;;;4.18;2.90;;;;;;;-155.54;100.00;57697.75;5023657;28;20154;-63
2022/04/13 02:20:32;;;;;;;3.35;2.70;;;;;;;-155.54;100.00;57697.75;5009301;28;20091;-62
2022/04/13 02:22:57;;;;;;;3.40;2.45;;;;;;;-155.54;100.00;57697.75;5012094;28;20106;-63
2022/04/13 02:25:22;;;;;;;5.63;2.47;;;;;;;-155.54;100.00;57697.75;5010448;28;20540;-62
2022/04/13 02:27:48;;;;;;;3.65;2.47;;;;;;;-155.54;100.00;57697.75;5017796;28;20433;-63
2022/04/13 02:30:15;;;;;;;4.40;3.08;;;;;;;-155.54;100.00;57697.75;5011992;28;20091;-63
2022/04/13 02:32:43;;;;;;;2.65;2.20;;;;;;;-155.54;100.00;57697.75;5021001;28;20129;-63
2022/04/13 02:35:08;;;;;;;3.40;2.00;;;;;;;-155.54;100.00;57697.75;5012036;28;20242;-63
2022/04/13 02:37:34;;;;;;;4.60;1.92;;;;;;;-155.54;100.00;57697.75;5020687;28;20520;-62
2022/04/13 02:39:59;;;;;;;5.70;2.50;;;;;;;-155.54;100.00;57697.75;5020849;28;20089;-63
2022/04/13 02:42:25;;;;;;;4.65;3.03;;;;;;;-155.54;100.00;57697.75;5018575;28;20067;-64
2022/04/13 02:44:51;;;;;;;7.15;4.00;;;;;;;-155.54;100.00;57697.75;4989245;28;20062;-62
2022/04/13 02:47:16;;;;;;;5.40;3.65;;;;;;;-155.54;100.00;57697.75;5016777;28;20223;-63
2022/04/13 02:49:43;;;;;;;3.25;2.30;;;;;;;-155.54;100.00;57697.75;5005843;28;20585;-64
2022/04/13 02:52:08;;;;;;;4.20;2.60;;;;;;;-155.54;100.00;57697.75;5016009;28;20092;-63
2022/04/13 02:54:33;;;;;;;6.13;2.10;;;;;;;-155.54;100.00;57697.75;5006885;28;20077;-64
2022/04/13 02:56:59;;;;;;;8.40;2.53;;;;;;;-155.54;100.00;57697.75;5013815;28;20397;-64
2022/04/13 02:59:24;;;;;;;5.20;2.78;;;;;;;-155.54;100.00;57697.75;5020525;28;20085;-63
2022/04/13 03:01:50;;;;;;;4.30;2.90;;;;;;;-155.54;100.00;57697.75;5014866;28;20564;-63
2022/04/13 03:04:16;;;;;;;4.28;2.88;;;;;;;-155.54;100.00;57697.75;5010597;28;20122;-63
2022/04/13 03:06:41;;;;;;;2.00;1.70;;;;;;;-155.54;100.00;57697.75;5009728;28;20106;-63
2022/04/13 03:09:07;;;;;;;3.45;2.00;;;;;;;-155.54;100.00;57697.75;5015133;28;20074;-63
2022/04/13 03:11:32;;;;;;;5.95;3.22;;;;;;;-155.54;100.00;57697.75;5015996;28;20106;-64
2022/04/13 03:13:58;;;;;;;3.92;3.00;;;;;;;-155.54;100.00;57697.75;5019902;28;20109;-64
2022/04/13 03:16:23;;;;;;;5.45;2.80;;;;;;;-155.54;100.00;57697.75;5009471;28;20092;-64
2022/04/13 03:18:49;;;;;;;7.43;4.60;;;;;;;-155.54;100.00;57697.75;5018662;28;20096;-64
2022/04/13 03:21:14;;;;;;;4.82;3.42;;;;;;;-155.54;100.00;57697.75;5011738;28;20067;-64
2022/04/13 03:23:40;;;;;;;3.40;2.53;;;;;;;-155.54;100.00;57697.75;5018992;28;20151;-64
2022/04/13 03:26:06;;;;;;;2.63;2.40;;;;;;;-155.54;100.00;57697.75;5017219;28;20067;-64
2022/04/13 03:28:31;;;;;;;5.47;2.92;;;;;;;-155.54;100.00;57697.75;5022278;28;20095;-63
2022/04/13 03:30:56;;;;;;;6.70;3.10;;;;;;;-155.54;100.00;57697.75;5009143;28;20115;-64
2022/04/13 03:33:22;;;;;;;6.28;3.72;;;;;;;-155.54;100.00;57697.75;5021130;28;20084;-63
2022/04/13 03:35:48;;;;;;;6.97;4.30;;;;;;;-155.54;100.00;57697.75;5021118;28;20078;-63
2022/04/13 03:38:13;;;;;;;10.95;5.53;;;;;;;-155.54;100.00;57697.75;5020555;28;20064;-63
2022/04/13 03:40:38;;;;;;;15.40;6.18;;;;;;;-155.54;100.00;57697.75;5006190;28;20579;-64
2022/04/13 03:43:04;;;;;;;11.88;7.10;;;;;;;-155.54;100.00;57697.75;5011937;28;20094;-63
2022/04/13 03:45:29;;;;;;;7.25;4.35;;;;;;;-155.54;100.00;57697.75;5004820;28;20377;-63
2022/04/13 03:47:55;;;;;;;5.75;3.53;;;;;;;-155.54;100.00;57697.75;5005947;28;20476;-62
2022/04/13 03:50:20;;;;;;;5.25;3.10;;;;;;;-155.54;100.00;57697.75;5019012;28;20520;-63
2022/04/13 03:52:46;;;;;;;4.72;2.65;;;;;;;-155.54;100.00;57697.75;5017730;28;20591;-64
2022/04/13 03:55:12;;;;;;;4.20;2.10;;;;;;;-155.54;100.00;57697.75;5019422;28;20508;-62
2022/04/13 03:57:37;;;;;;;3.63;2.50;;;;;;;-155.54;100.00;57697.75;5009448;28;20075;-63
2022/04/13 04:00:04;;;;;;;6.03;2.40;;;;;;;-155.54;100.00;57697.75;5020823;28;20102;-64
2022/04/13 04:02:30;;;;;;;4.32;2.40;;;;;;;-155.54;100.00;57697.75;5017021;28;20134;-63
2022/04/13 04:04:55;;;;;;;4.38;2.75;;;;;;;-155.54;100.00;57697.75;5022264;28;20416;-62
2022/04/13 04:07:21;;;;;;;4.40;2.80;;;;;;;-155.54;100.00;57697.75;5006562;28;20099;-63
2022/04/13 04:09:46;;;;;;;4.45;2.10;;;;;;;-155.54;100.00;57697.75;5020943;28;20377;-62
2022/04/13 04:12:11;;;;;;;5.07;2.22;;;;;;;-155.54;100.00;57697.75;5009475;28;20119;-62
2022/04/13 04:14:37;;;;;;;3.13;2.10;;;;;;;-155.54;100.00;57697.75;5001769;28;20071;-63
2022/04/13 04:17:03;;;;;;;2.95;2.00;;;;;;;-155.54;100.00;57697.75;5020109;28;20070;-63
2022/04/13 04:19:28;;;;;;;2.45;1.95;;;;;;;-155.54;100.00;57697.75;5006747;28;20091;-63
2022/04/13 04:21:55;;;;;;;2.95;1.95;;;;;;;-155.54;100.00;57697.75;5017136;28;20065;-64
2022/04/13 04:24:21;;;;;;;2.45;2.08;;;;;;;-155.54;100.00;57697.75;5003711;28;20125;-64
2022/04/13 04:26:46;;;;;;;2.97;1.90;;;;;;;-155.54;100.00;57697.75;5007113;28;20090;-64
2022/04/13 04:29:12;;;;;;;5.05;2.25;;;;;;;-155.54;100.00;57697.75;5020177;28;20104;-64
2022/04/13 04:31:56;;;;;;;6.38;2.33;;;;;;;-155.54;100.00;57697.75;5017108;28;20437;-64
2022/04/13 04:34:23;;;;;;;8.30;2.40;;;;;;;-155.54;100.00;57697.75;5011188;28;20107;-62
2022/04/13 04:36:49;;;;;;;4.03;2.63;;;;;;;-155.54;100.00;57697.75;5017365;28;20524;-63
2022/04/13 04:39:14;;;;;;;5.13;2.35;;;;;;;-155.54;100.00;57697.75;5018586;28;20420;-62
2022/04/13 04:41:43;;;;;;;5.53;2.63;;;;;;;-155.54;100.00;57697.75;5007431;28;20529;-64
2022/04/13 04:44:08;;;;;;;5.40;2.47;;;;;;;-155.54;100.00;57697.75;5019978;28;20553;-63
2022/04/13 04:46:34;;;;;;;4.18;2.35;;;;;;;-155.54;100.00;57697.75;5008056;28;20106;-64
2022/04/13 04:49:00;;;;;;;3.42;2.40;;;;;;;-155.54;100.00;57697.75;5006768;28;20146;-64
2022/04/13 04:51:25;;;;;;;4.63;2.60;;;;;;;-155.54;100.00;57697.75;5019208;28;20370;-64
2022/04/13 04:53:50;;;;;;;4.10;2.47;;;;;;;-155.54;100.00;57697.75;5013463;28;20093;-64
2022/04/13 04:56:16;;;;;;;7.93;2.67;;;;;;;-155.54;100.00;57697.75;5012009;28;20366;-63
2022/04/13 04:58:41;;;;;;;7.60;2.70;;;;;;;-155.54;100.00;57697.75;5006724;28;20178;-63
2022/04/13 05:01:07;;;;;;;3.97;2.40;;;;;;;-155.54;100.00;57697.75;5022980;28;20474;-63
2022/04/13 05:03:33;;;;;;;5.63;2.40;;;;;;;-155.54;100.00;57697.75;5024837;28;20519;-63
2022/04/13 05:05:58;;;;;;;3.97;2.45;;;;;;;-155.54;100.00;57697.75;5012483;28;20060;-63
2022/04/13 05:08:24;;;;;;;3.95;2.55;;;;;;;-155.54;100.00;57697.75;5023922;28;20252;-63
2022/04/13 05:10:51;;;;;;;4.82;2.72;;;;;;;-155.54;100.00;57697.75;5015162;28;20156;-63
2022/04/13 05:13:19;;;;;;;4.28;2.40;;;;;;;-155.54;100.00;57697.75;5015094;28;20082;-64
2022/04/13 05:15:45;;;;;;;3.70;2.50;;;;;;;-155.54;100.00;57697.75;5020306;28;20577;-63
2022/04/13 05:18:11;;;;;;;4.82;2.60;;;;;;;-155.54;100.00;57697.75;5008552;28;20073;-65
2022/04/13 05:20:37;;;;;;;3.97;2.65;;;;;;;-155.54;100.00;57697.75;4997087;28;20133;-64
2022/04/13 05:23:02;;;;;;;4.65;2.30;;;;;;;-155.54;100.00;57697.75;4996990;28;20376;-62
2022/04/13 05:25:27;;;;;;;4.50;2.38;;;;;;;-155.54;100.00;57697.75;4994207;28;20075;-62
2022/04/13 05:27:53;;;;;;;4.75;2.70;;;;;;;-155.54;100.00;57697.75;5002041;28;20095;-64
2022/04/13 05:30:18;;;;;;;3.28;2.20;;;;;;;-155.54;100.00;57697.75;4990349;28;20616;-63
2022/04/13 05:32:49;;;;;;;3.75;2.20;;;;;;;-155.54;100.00;57697.75;4992987;28;20144;-63
2022/04/13 05:35:15;;;;;;;5.07;2.45;;;;;;;-155.54;100.00;57697.75;4989980;28;20108;-63
2022/04/13 05:37:40;;;;;;;5.50;2.58;;;;;;;-155.54;100.00;57697.75;5000964;28;20467;-63
2022/04/13 05:40:06;;;;;;;4.22;2.78;;;;;;;-155.54;100.00;57697.75;5004495;28;20098;-63
2022/04/13 05:42:32;;;;;;;7.20;3.38;;;;;;;-155.54;100.00;57697.75;4995998;28;20062;-63
2022/04/13 05:44:58;;;;;;;8.55;3.40;;;;;;;-155.54;100.00;57697.75;5005067;28;20077;-63
2022/04/13 05:47:24;;;;;;;6.72;3.38;;;;;;;-155.54;100.00;57697.75;5003877;28;20102;-63
2022/04/13 05:49:49;;;;;;;5.82;3.20;;;;;;;-155.54;100.00;57697.75;5002962;28;20076;-63
2022/04/13 05:52:15;;;;;;;6.65;3.47;;;;;;;-155.54;100.00;57697.75;5012361;28;20086;-64
2022/04/13 05:54:40;;;;;;;6.18;3.40;;;;;;;-155.54;100.00;57697.75;5017653;28;20496;-59
2022/04/13 05:57:06;;;;;;;7.65;3.20;;;;;;;-155.54;100.00;57697.75;5011996;28;20645;-64
2022/04/13 05:59:31;;;;;;;4.97;3.10;;;;;;;-155.54;100.00;57697.75;4998463;28;20081;-63
2022/04/13 06:01:57;;;;;;;5.82;3.20;;;;;;;-155.54;100.00;57697.75;4991643;28;20087;-63
2022/04/13 06:04:23;;;;;;;4.30;3.08;;;;;;;-155.54;100.00;57697.75;5016725;28;20092;-62
2022/04/13 06:06:48;;;;;;;4.90;3.20;;;;;;;-155.54;100.00;57697.75;5014513;28;20104;-64
2022/04/13 06:09:14;;;;;;;5.88;3.30;;;;;;;-155.54;100.00;57697.75;5016164;28;20160;-60
2022/04/13 06:11:39;;;;;;;6.38;3.30;;;;;;;-155.54;100.00;57697.75;5015695;28;20257;-64
2022/04/13 06:14:05;;;;;;;4.53;3.17;;;;;;;-155.54;100.00;57697.75;5011323;28;20118;-64
2022/04/13 06:16:30;;;;;;;6.45;3.20;;;;;;;-155.54;100.00;57697.75;5007074;28;20122;-63
2022/04/13 06:18:55;;;;;;;4.25;3.15;;;;;;;-155.54;100.00;57697.75;5014673;28;20080;-63
2022/04/13 06:21:21;;;;;;;4.47;2.80;;;;;;;-155.54;100.00;57697.75;5020065;28;20489;-63
2022/04/13 06:23:47;;;;;;;9.00;3.83;;;;;;;-155.54;100.00;57697.75;5012867;28;20078;-64
2022/04/13 06:26:12;;;;;;;8.38;3.60;;;;;;;-155.54;100.00;57697.75;5010519;28;20086;-63
2022/04/13 06:28:38;;;;;;;7.85;3.30;;;;;;;-155.54;100.00;57697.75;5019423;28;20209;-63
2022/04/13 06:31:03;;;;;;;4.95;3.00;;;;;;;-155.54;100.00;57697.75;5009219;28;20091;-64
2022/04/13 06:33:29;;;;;;;5.47;2.90;;;;;;;-155.54;100.00;57697.75;5004751;28;20074;-62
2022/04/13 06:35:54;;;;;;;5.05;2.70;;;;;;;-155.54;100.00;57697.75;5008798;28;20483;-64
2022/04/13 06:38:20;;;;;;;4.80;3.00;;;;;;;-155.54;100.00;57697.75;5021790;28;20060;-63
2022/04/13 06:40:45;;;;;;;5.25;3.10;;;;;;;-155.54;100.00;57697.75;5021670;28;20331;-64
2022/04/13 06:43:10;;;;;;;5.32;3.30;;;;;;;-155.54;100.00;57697.75;5020185;28;20504;-64
2022/04/13 06:45:36;;;;;;;4.47;3.08;;;;;;;-155.54;100.00;57697.75;5020560;28;20494;-64
2022/04/13 06:48:02;;;;;;;4.50;2.80;;;;;;;-155.54;100.00;57697.75;5008171;28;20072;-64
2022/04/13 06:50:28;;;;;;;3.05;2.50;;;;;;;-155.54;100.00;57697.75;5004605;28;20456;-63
2022/04/13 06:52:53;;;;;;;4.90;2.40;;;;;;;-155.54;100.00;57697.75;5019249;28;20374;-64
2022/04/13 06:55:19;;;;;;;6.13;2.45;;;;;;;-155.54;100.00;57697.75;5009553;28;20113;-64
2022/04/13 06:57:44;;;;;;;5.32;3.80;;;;;;;-155.54;100.00;57697.75;5018889;28;20048;-64
2022/04/13 07:00:11;;;;;;;6.75;2.50;;;;;;;-155.54;100.00;57697.75;5006387;28;20080;-65
2022/04/13 07:02:37;;;;;;;5.27;2.00;;;;;;;-155.54;100.00;57697.75;5016070;28;20063;-64
2022/04/13 07:05:04;;;;;;;4.32;2.30;;;;;;;-155.54;100.00;57697.75;4997494;28;20053;-65
2022/04/13 07:07:30;;;;;;;4.13;2.38;;;;;;;-155.54;100.00;57697.75;4998688;28;20484;-64
2022/04/13 07:09:55;;;;;;;4.95;2.00;;;;;;;-155.54;100.00;57697.75;4981864;28;20049;-63
2022/04/13 07:12:20;;;;;;;3.75;2.50;;;;;;;-155.54;100.00;57697.75;4993707;28;20092;-65
2022/04/13 07:14:46;;;;;;;4.75;2.65;;;;;;;-155.54;100.00;57697.75;4996085;28;20583;-65
2022/04/13 07:17:11;;;;;;;8.10;2.78;;;;;;;-155.54;100.00;57697.75;4984915;28;20058;-65
2022/04/13 07:19:37;;;;;;;3.92;2.30;;;;;;;-155.54;100.00;57697.75;5012133;28;20578;-65
2022/04/13 07:22:02;;;;;;;5.57;2.90;;;;;;;-155.54;100.00;57697.75;5032867;28;20072;-65
2022/04/13 07:24:28;;;;;;;6.25;2.22;;;;;;;-155.54;100.00;57697.75;4986561;28;20076;-65
2022/04/13 07:26:54;;;;;;;3.38;2.10;;;;;;;-155.54;100.00;57697.75;4994214;28;20064;-65
2022/04/13 07:29:19;;;;;;;3.80;2.17;;;;;;;-155.54;100.00;57697.75;5018626;28;20083;-65
2022/04/13 07:31:45;;;;;;;3.17;2.05;;;;;;;-155.54;100.00;57697.75;5030799;28;20090;-66
2022/04/13 07:34:10;;;;;;;6.70;2.50;;;;;;;-155.54;100.00;57697.75;5016550;28;20063;-66
2022/04/13 07:36:35;;;;;;;8.15;2.30;;;;;;;-155.54;100.00;57697.75;4984141;28;20560;-65
2022/04/13 07:39:02;;;;;;;3.05;2.05;;;;;;;-155.54;100.00;57697.75;4984209;28;20314;-65
2022/04/13 07:41:28;;;;;;;7.47;2.10;;;;;;;-155.54;100.00;57697.75;4998451;28;20074;-66
2022/04/13 07:43:55;;;;;;;10.35;1.98;;;;;;;-155.54;100.00;57697.75;4985620;28;20078;-65
2022/04/13 07:46:21;;;;;;;4.28;1.90;;;;;;;-155.54;100.00;57697.75;4994598;28;20619;-65
2022/04/13 07:48:46;;;;;;;4.32;3.15;;;;;;;-155.54;100.00;57697.75;5010398;28;20039;-65
2022/04/13 07:51:12;;;;;;;3.30;2.03;;;;;;;-155.54;100.00;57697.75;5015982;28;20074;-65
2022/04/13 07:53:37;;;;;;;3.83;2.20;;;;;;;-155.54;100.00;57697.75;5007881;28;20071;-65
2022/04/13 07:56:03;;;;;;;6.50;2.08;;;;;;;-155.54;100.00;57697.75;5015344;28;20077;-65
2022/04/13 07:58:28;;;;;;;4.53;2.42;;;;;;;-155.54;100.00;57697.75;5005905;28;20030;-65
2022/04/13 08:00:53;;;;;;;6.07;2.13;;;;;;;-155.54;100.00;57697.75;5017710;28;20072;-65
2022/04/13 08:03:19;;;;;;;4.68;2.00;;;;;;;-155.54;100.00;57697.75;5011714;28;20095;-65
2022/04/13 08:05:45;;;;;;;5.35;2.53;;;;;;;-155.54;100.00;57697.75;4998125;28;20072;-65
2022/04/13 08:08:10;;;;;;;5.97;2.22;;;;;;;-155.54;100.00;57697.75;5015189;28;20062;-64
2022/04/13 08:10:35;;;;;;;5.72;2.30;;;;;;;-155.54;100.00;57697.75;5017629;28;20414;-64
2022/04/13 08:13:01;;;;;;;17.35;4.40;;;;;;;-155.54;100.00;57697.75;5003202;28;20067;-63
2022/04/13 08:15:26;;;;;;;6.63;4.07;;;;;;;-155.54;100.00;57697.75;4996309;28;20048;-62
2022/04/13 08:17:52;;;;;;;6.70;2.35;;;;;;;-155.54;100.00;57697.75;4995722;28;20034;-63
2022/04/13 08:20:17;;;;;;;9.55;1.95;;;;;;;-155.54;100.00;57697.75;4979414;28;20551;-62
2022/04/13 08:22:43;;;;;;;9.40;2.10;;;;;;;-155.54;100.00;57697.75;4982070;28;20553;-62
2022/04/13 08:25:09;;;;;;;5.65;2.10;;;;;;;-155.54;100.00;57697.75;5001661;28;20040;-62
2022/04/13 08:27:34;;;;;;;7.88;3.30;;;;;;;-155.54;100.00;57697.75;5003810;28;20145;-63
2022/04/13 08:30:00;;;;;;;4.70;1.80;;;;;;;-155.54;100.00;57697.75;5015938;28;20115;-62
2022/04/13 08:32:25;;;;;;;5.22;1.98;;;;;;;-155.54;100.00;57697.75;5006038;28;20072;-62
2022/04/13 08:34:54;;;;;;;4.25;2.00;;;;;;;-155.54;100.00;57697.75;5010984;28;20034;-63
2022/04/13 08:37:20;;;;;;;7.03;2.40;;;;;;;-155.54;100.00;57697.75;5004595;28;20099;-64
2022/04/13 08:39:45;;;;;;;4.95;1.90;;;;;;;-155.54;100.00;57697.75;5017479;28;20494;-62
2022/04/13 08:42:14;;;;;;;6.38;1.95;;;;;;;-155.54;100.00;57697.75;5003893;28;20050;-63
2022/04/13 08:45:01;;;;;;;4.68;2.20;;;;;;;-155.54;100.00;57697.75;5014948;28;20525;-63
2022/04/13 08:47:26;;;;;;;5.13;2.30;;;;;;;-155.54;100.00;57697.75;4986439;28;20495;-63
2022/04/13 08:49:52;;;;;;;5.82;2.70;;;;;;;-155.54;100.00;57697.75;5010620;28;20040;-63
2022/04/13 08:52:26;;;;;;;5.32;2.90;;;;;;;-155.54;100.00;57697.75;5008906;28;20505;-63
2022/04/13 08:55:09;;;;;;;5.72;2.30;;;;;;;-155.54;100.00;57697.75;5008968;28;20048;-63
2022/04/13 08:57:37;;;;;;;5.40;2.35;;;;;;;-155.54;100.00;57697.75;5006006;28;20398;-63
2022/04/13 09:00:10;;;;;;;8.25;2.80;;;;;;;-155.54;100.00;57697.75;5015152;28;20045;-63
2022/04/13 09:02:47;;;;;;;4.60;2.17;;;;;;;-155.54;100.00;57697.75;5012062;28;20099;-64
2022/04/13 09:05:32;;;;;;;5.13;2.67;;;;;;;-155.54;100.00;57697.75;5017148;28;20030;-63
2022/04/13 09:08:05;;;;;;;3.50;2.67;;;;;;;-155.54;100.00;57697.75;4995097;28;20608;-64
2022/04/13 09:10:31;;;;;;;4.80;2.90;;;;;;;-155.54;100.00;57697.75;4999344;28;20030;-64
2022/04/13 09:12:57;;;;;;;7.80;2.50;;;;;;;-155.54;100.00;57697.75;5018784;28;20124;-65
2022/04/13 09:15:23;;;;;;;6.13;3.22;;;;;;;-155.54;100.00;57697.75;5006046;28;20148;-64
2022/04/13 09:17:48;;;;;;;4.43;2.80;;;;;;;-155.54;100.00;57697.75;4980512;28;20453;-64
2022/04/13 09:20:14;;;;;;;5.68;3.08;;;;;;;-155.54;100.00;57697.75;4996269;28;20515;-64
2022/04/13 09:22:39;;;;;;;5.40;2.90;;;;;;;-155.54;100.00;57697.75;5016411;28;20412;-65
2022/04/13 09:25:05;;;;;;;6.53;3.47;;;;;;;-155.54;100.00;57697.75;5000268;28;20029;-64
2022/04/13 09:27:31;;;;;;;6.40;2.65;;;;;;;-155.54;100.00;57697.75;5010709;28;20053;-64
2022/04/13 09:29:57;;;;;;;4.22;1.98;;;;;;;-155.54;100.00;57697.75;5015002;28;20042;-63
2022/04/13 09:32:23;;;;;;;7.10;2.00;;;;;;;-155.54;100.00;57697.75;5003404;28;20093;-64
2022/04/13 09:34:49;;;;;;;7.65;2.53;;;;;;;-155.54;100.00;57697.75;4985706;28;20108;-64
2022/04/13 09:37:15;;;;;;;5.25;1.92;;;;;;;-155.54;100.00;57697.75;5021550;28;20116;-65
2022/04/13 09:39:40;;;;;;;5.68;1.90;;;;;;;-155.54;100.00;57697.75;5019957;28;20048;-64
2022/04/13 09:42:06;;;;;;;5.38;2.17;;;;;;;-155.54;100.00;57697.75;5014970;28;20044;-65
2022/04/13 09:44:33;;;;;;;5.72;2.30;;;;;;;-155.54;100.00;57697.75;5024640;28;20033;-64
2022/04/13 09:47:08;;;;;;;5.78;3.08;;;;;;;-155.54;100.00;57697.75;5023253;28;20116;-64
2022/04/13 09:49:34;;;;;;;7.38;2.00;;;;;;;-155.54;100.00;57697.75;5023726;28;20036;-64
2022/04/13 09:52:00;;;;;;;7.13;2.22;;;;;;;-155.54;100.00;57697.75;5024271;28;20041;-64
2022/04/13 09:54:25;;;;;;;5.97;1.90;;;;;;;-155.54;100.00;57697.75;5021974;28;20536;-64
2022/04/13 09:56:51;;;;;;;5.20;2.00;;;;;;;-155.54;100.00;57697.75;5024774;28;20478;-64
2022/04/13 09:59:27;;;;;;;5.00;2.00;;;;;;;-155.54;100.00;57697.75;5022417;28;20147;-64
2022/04/13 10:01:52;;;;;;;7.18;2.00;;;;;;;-155.54;100.00;57697.75;5024561;28;20672;-63
2022/04/13 10:04:27;;;;;;;8.60;2.10;;;;;;;-155.54;100.00;57697.75;5022469;28;20037;-64
2022/04/13 10:06:52;;;;;;;7.50;2.40;;;;;;;-155.54;100.00;57697.75;5018617;28;20499;-64
2022/04/13 10:09:21;;;;;;;6.53;2.30;;;;;;;-155.54;100.00;57697.75;4996519;28;20107;-64
2022/04/13 10:12:01;;;;;;;4.25;2.00;;;;;;;-155.54;100.00;57697.75;5001294;28;20044;-64
2022/04/13 10:14:26;;;;;;;5.35;2.03;;;;;;;-155.54;100.00;57697.75;4989501;28;20281;-64
2022/04/13 10:16:52;;;;;;;6.53;1.90;;;;;;;-155.54;100.00;57697.75;5020920;28;20026;-72
2022/04/13 10:19:18;;;;;;;6.50;2.20;;;;;;;-155.54;100.00;57697.75;5019814;28;20026;-73
2022/04/13 10:21:49;;;;;;;6.20;1.90;;;;;;;-155.54;100.00;57697.75;5002423;28;20068;-73
2022/04/13 10:24:28;;;;;;;4.90;2.00;;;;;;;-155.54;100.00;57697.75;5004080;28;20062;-73
2022/04/13 10:27:07;;;;;;;7.82;2.10;;;;;;;-155.54;100.00;57697.75;4986493;28;20093;-73
2022/04/13 10:29:34;;;;;;;8.55;2.22;;;;;;;-155.54;100.00;57697.75;4999843;28;20090;-73
2022/04/13 10:32:11;;;;;;;;;;;;;;;-155.54;100.00;57697.75;4997336;28;20034;-73
2022/04/13 10:34:39;;;;;;;13.30;2.60;;;;;;;-155.54;100.00;57697.75;5003626;28;19935;-70
2022/04/13 10:37:04;;;;;;;;;;;;;;;-155.54;100.00;57697.75;5004106;28;20042;-70
2022/04/13 10:39:30;;;;;;;9.15;2.10;;;;;;;-155.54;100.00;57697.75;4995806;28;19964;-72
2022/04/13 10:41:56;;;;;;;5.05;1.90;;;;;;;-155.54;100.00;57697.75;5004422;28;20757;-72
2022/04/13 10:44:36;;;;;;;5.95;2.10;;;;;;;-155.54;100.00;57697.75;5004051;28;20491;-72
2022/04/13 10:47:04;;;;;;;5.93;2.05;;;;;;;-155.54;100.00;57697.75;4989644;28;20309;-73
2022/04/13 10:49:33;;;;;;;6.40;2.17;;;;;;;-155.54;100.00;57697.75;5004172;28;20041;-73
2022/04/13 10:52:03;;;;;;;5.90;2.00;;;;;;;-155.54;100.00;57697.75;5001109;28;20132;-73
2022/04/13 10:54:28;;;;;;;5.10;1.92;;;;;;;-155.54;100.00;57697.75;5003647;28;20060;-73
2022/04/13 10:56:56;;;;;;;4.72;1.90;;;;;;;-155.54;100.00;57697.75;5003998;28;20222;-73
2022/04/13 10:59:30;;;;;;;4.30;1.73;;;;;;;-155.54;100.00;57697.75;4976596;28;20069;-73
2022/04/13 11:02:04;;;;;;;5.38;1.95;;;;;;;-155.54;100.00;57697.75;5001067;28;20025;-73
2022/04/13 11:04:31;;;;;;;5.75;1.77;;;;;;;-155.54;100.00;57697.75;4988761;28;20039;-73
2022/04/13 11:06:57;;;;;;;4.95;2.13;;;;;;;-155.54;100.00;57697.75;5001813;28;20037;-73